createdAt,value
2018-03-03T00:01:05.466Z,87.05
2018-03-03T00:03:36.334Z,87.17
2018-03-03T00:06:07.198Z,86.76
2018-03-03T00:08:38.068Z,86.35
2018-03-03T00:11:10.058Z,86.04
2018-03-03T00:13:40.930Z,85.66
2018-03-03T00:16:11.842Z,86.06
2018-03-03T00:18:42.713Z,85.49
2018-03-03T00:21:13.622Z,85.59
2018-03-03T00:23:44.504Z,85.88
2018-03-03T00:26:15.395Z,86.34
2018-03-03T00:28:46.187Z,85.80
2018-03-03T00:31:17.096Z,86.09
2018-03-03T00:33:47.946Z,86.39
2018-03-03T00:36:18.854Z,86.56
2018-03-03T00:38:49.708Z,86.77
2018-03-03T00:41:20.551Z,87.18
2018-03-03T00:43:51.380Z,86.69
2018-03-03T00:46:22.224Z,85.95
2018-03-03T00:48:53.055Z,86.14
2018-03-03T00:51:23.954Z,85.90
2018-03-03T00:53:54.793Z,85.85
2018-03-03T00:56:27.679Z,86.77
2018-03-03T00:58:58.553Z,86.11
2018-03-03T01:01:29.433Z,85.87
2018-03-03T01:04:00.271Z,85.71
2018-03-03T01:06:31.117Z,85.28
2018-03-03T01:09:02.010Z,85.53
2018-03-03T01:11:32.898Z,86.11
2018-03-03T01:14:03.763Z,86.83
2018-03-03T01:16:34.618Z,85.98
2018-03-03T01:19:05.436Z,86.15
2018-03-03T01:21:36.267Z,86.10
2018-03-03T01:24:07.086Z,86.35
2018-03-03T01:26:37.938Z,86.76
2018-03-03T01:29:08.762Z,86.85
2018-03-03T01:31:41.684Z,87.18
2018-03-03T01:34:12.515Z,87.59
2018-03-03T01:36:43.367Z,86.84
2018-03-03T01:39:14.246Z,85.88
2018-03-03T01:41:45.130Z,86.71
2018-03-03T01:44:16.051Z,86.28
2018-03-03T01:46:46.966Z,86.53
2018-03-03T01:49:17.829Z,86.44
2018-03-03T01:51:48.670Z,86.79
2018-03-03T01:54:19.521Z,86.71
2018-03-03T01:56:50.358Z,86.31
2018-03-03T01:59:21.238Z,86.55
2018-03-03T02:01:52.111Z,86.69
2018-03-03T02:04:22.965Z,86.60
2018-03-03T02:06:53.846Z,86.28
2018-03-03T02:09:24.716Z,85.97
2018-03-03T02:11:55.561Z,86.36
2018-03-03T02:14:26.400Z,86.45
2018-03-03T02:16:57.468Z,86.56
2018-03-03T02:19:28.290Z,86.88
2018-03-03T02:21:59.178Z,86.58
2018-03-03T02:24:30.009Z,86.66
2018-03-03T02:27:00.886Z,87.52
2018-03-03T02:29:31.737Z,87.76
2018-03-03T02:32:02.586Z,87.53
2018-03-03T02:34:33.412Z,86.51
2018-03-03T02:37:04.336Z,87.00
2018-03-03T02:39:35.198Z,87.40
2018-03-03T02:42:06.066Z,87.49
2018-03-03T02:44:36.929Z,87.85
2018-03-03T02:47:07.824Z,87.98
2018-03-03T02:49:38.703Z,87.71
2018-03-03T02:52:09.549Z,87.93
2018-03-03T02:54:40.399Z,88.50
2018-03-03T02:57:11.286Z,88.52
2018-03-03T02:59:42.126Z,88.68
2018-03-03T03:02:12.988Z,88.36
2018-03-03T03:04:43.847Z,88.09
2018-03-03T03:07:14.667Z,88.41
2018-03-03T03:09:45.534Z,88.75
2018-03-03T03:12:16.443Z,88.82
2018-03-03T03:14:47.304Z,89.03
2018-03-03T03:17:18.149Z,89.39
2018-03-03T03:19:49.022Z,89.72
2018-03-03T03:22:19.904Z,89.83
2018-03-03T03:24:50.741Z,89.79
2018-03-03T03:27:21.607Z,89.62
2018-03-03T03:29:52.464Z,89.92
2018-03-03T03:32:23.319Z,89.86
2018-03-03T03:34:54.168Z,90.10
2018-03-03T03:37:33.179Z,89.82
2018-03-03T03:40:04.147Z,89.87
2018-03-03T03:42:34.997Z,90.17
2018-03-03T03:45:05.877Z,90.24
2018-03-03T03:47:36.768Z,90.43
2018-03-03T03:50:07.592Z,90.49
2018-03-03T03:52:38.423Z,90.71
2018-03-03T03:55:09.432Z,90.66
2018-03-03T03:57:40.300Z,90.34
2018-03-03T04:00:11.133Z,90.47
2018-03-03T04:02:42.036Z,90.23
2018-03-03T04:05:12.886Z,90.42
2018-03-03T04:07:43.744Z,90.66
2018-03-03T04:10:14.574Z,90.59
2018-03-03T04:12:45.464Z,90.57
2018-03-03T04:15:16.354Z,90.56
2018-03-03T04:17:47.227Z,90.44
2018-03-03T04:20:18.066Z,90.53
2018-03-03T04:22:48.973Z,90.65
2018-03-03T04:25:19.794Z,90.83
2018-03-03T04:27:52.700Z,90.55
2018-03-03T04:30:23.573Z,90.05
2018-03-03T04:32:54.425Z,90.01
2018-03-03T04:35:25.308Z,89.92
2018-03-03T04:37:56.139Z,89.72
2018-03-03T04:40:26.973Z,89.71
2018-03-03T04:42:57.830Z,89.99
2018-03-03T04:45:28.619Z,89.83
2018-03-03T04:47:59.488Z,89.67
2018-03-03T04:50:34.274Z,89.75
2018-03-03T04:53:05.150Z,89.91
2018-03-03T04:55:35.980Z,90.12
2018-03-03T04:58:06.817Z,90.24
2018-03-03T05:00:41.572Z,90.24
2018-03-03T05:06:25.002Z,90.44
2018-03-03T05:08:55.865Z,90.51
2018-03-03T05:11:26.704Z,90.07
2018-03-03T05:17:14.009Z,89.85
2018-03-03T05:19:50.968Z,89.57
2018-03-03T05:22:27.811Z,89.92
2018-03-03T05:28:24.937Z,90.59
2018-03-03T05:31:01.930Z,90.18
2018-03-03T05:33:38.763Z,90.09
2018-03-03T05:36:20.765Z,90.15
2018-03-03T05:38:57.721Z,90.12
2018-03-03T05:41:34.522Z,90.17
2018-03-03T05:44:11.543Z,90.43
2018-03-03T05:49:51.033Z,90.41
2018-03-03T05:55:48.311Z,90.22
2018-03-03T06:01:28.900Z,89.94
2018-03-03T06:04:04.722Z,90.27
2018-03-03T06:09:42.939Z,90.14
2018-03-03T06:12:13.801Z,89.79
2018-03-03T06:14:44.693Z,89.78
2018-03-03T06:17:15.543Z,89.60
2018-03-03T06:19:46.397Z,89.46
2018-03-03T06:22:17.250Z,89.30
2018-03-03T06:24:48.082Z,89.49
2018-03-03T06:27:18.943Z,89.23
2018-03-03T06:29:49.753Z,89.01
2018-03-03T06:32:20.585Z,89.01
2018-03-03T06:34:51.389Z,88.57
2018-03-03T06:37:22.220Z,88.79
2018-03-03T06:39:53.088Z,88.32
2018-03-03T06:42:23.909Z,87.53
2018-03-03T06:44:54.751Z,86.88
2018-03-03T06:47:25.595Z,87.27
2018-03-03T06:49:56.417Z,87.60
2018-03-03T06:52:27.247Z,87.31
2018-03-03T06:54:58.119Z,86.61
2018-03-03T06:57:28.946Z,86.80
2018-03-03T06:59:59.785Z,86.30
2018-03-03T07:02:30.587Z,85.66
2018-03-03T07:05:01.405Z,85.98
2018-03-03T07:07:32.249Z,85.91
2018-03-03T07:10:03.105Z,85.18
2018-03-03T07:12:33.918Z,86.03
2018-03-03T07:15:11.799Z,84.66
2018-03-03T07:17:42.616Z,84.77
2018-03-03T07:20:13.445Z,84.18
2018-03-03T07:22:44.266Z,83.80
2018-03-03T07:25:15.142Z,83.01
2018-03-03T07:27:45.938Z,82.46
2018-03-03T07:30:16.817Z,82.83
2018-03-03T07:32:47.655Z,82.33
2018-03-03T07:35:18.490Z,83.12
2018-03-03T07:37:49.300Z,82.47
2018-03-03T07:40:20.205Z,81.73
2018-03-03T07:42:51.037Z,81.23
2018-03-03T07:45:21.993Z,81.34
2018-03-03T07:47:52.877Z,81.36
2018-03-03T07:50:23.739Z,81.35
2018-03-03T07:52:54.578Z,80.64
2018-03-03T07:55:25.420Z,81.51
2018-03-03T07:58:03.007Z,81.29
2018-03-03T08:00:33.834Z,81.20
2018-03-03T08:03:04.698Z,79.84
2018-03-03T08:05:35.535Z,78.80
2018-03-03T08:08:06.405Z,78.68
2018-03-03T08:10:37.278Z,79.21
2018-03-03T08:13:08.172Z,79.75
2018-03-03T08:15:39.012Z,79.22
2018-03-03T08:18:09.877Z,77.83
2018-03-03T08:20:41.735Z,77.50
2018-03-03T08:23:12.632Z,76.66
2018-03-03T08:25:44.523Z,77.51
2018-03-03T08:28:15.342Z,76.30
2018-03-03T08:30:46.161Z,75.05
2018-03-03T08:33:23.976Z,77.11
2018-03-03T08:35:54.840Z,76.84
2018-03-03T08:38:25.774Z,76.06
2018-03-03T08:40:56.578Z,75.24
2018-03-03T08:43:27.456Z,73.91
2018-03-03T08:45:58.294Z,72.88
2018-03-03T08:48:29.128Z,72.15
2018-03-03T08:51:02.056Z,73.69
2018-03-03T08:53:32.918Z,72.44
2018-03-03T08:56:03.722Z,73.13
2018-03-03T08:58:34.598Z,72.00
2018-03-03T09:01:05.464Z,70.67
2018-03-03T09:03:36.303Z,70.70
2018-03-03T09:06:07.133Z,72.21
2018-03-03T09:08:37.925Z,69.77
2018-03-03T09:11:08.751Z,70.20
2018-03-03T09:13:39.618Z,69.04
2018-03-03T09:16:10.449Z,68.70
2018-03-03T09:18:41.357Z,69.13
2018-03-03T09:21:12.220Z,66.65
2018-03-03T09:23:43.039Z,66.98
2018-03-03T09:26:13.883Z,67.66
2018-03-03T09:28:44.717Z,66.29
2018-03-03T09:31:15.532Z,64.91
2018-03-03T09:33:46.390Z,64.22
2018-03-03T09:36:17.240Z,65.30
2018-03-03T09:38:48.084Z,66.04
2018-03-03T09:41:19.027Z,63.33
2018-03-03T09:43:49.886Z,64.13
2018-03-03T09:46:20.716Z,62.22
2018-03-03T09:48:52.644Z,62.47
2018-03-03T09:51:23.488Z,63.37
2018-03-03T09:53:54.286Z,63.12
2018-03-03T09:56:25.105Z,65.64
2018-03-03T10:01:26.631Z,63.40
2018-03-03T10:03:57.426Z,61.76
2018-03-03T10:06:29.310Z,61.90
2018-03-03T10:09:00.190Z,66.41
2018-03-03T10:11:31.026Z,63.57
2018-03-03T10:14:01.873Z,65.37
2018-03-03T10:16:32.709Z,65.61
2018-03-03T10:19:03.746Z,66.75
2018-03-03T10:21:34.684Z,66.44
2018-03-03T10:24:05.633Z,67.13
2018-03-03T10:26:36.568Z,66.61
2018-03-03T10:29:07.381Z,67.15
2018-03-03T10:31:38.185Z,67.36
2018-03-03T10:34:09.098Z,70.21
2018-03-03T10:36:39.936Z,72.90
2018-03-03T10:39:11.025Z,73.43
2018-03-03T10:41:41.841Z,71.40
2018-03-03T10:44:12.661Z,71.61
2018-03-03T10:46:43.663Z,73.65
2018-03-03T10:49:14.524Z,71.44
2018-03-03T10:51:45.368Z,71.35
2018-03-03T10:54:16.230Z,72.23
2018-03-03T10:56:47.044Z,72.24
2018-03-03T10:59:17.884Z,68.37
2018-03-03T11:01:48.701Z,66.92
2018-03-03T11:04:19.520Z,67.41
2018-03-03T11:06:50.305Z,65.97
2018-03-03T11:09:21.094Z,66.71
2018-03-03T11:11:51.885Z,65.29
2018-03-03T11:14:22.756Z,65.08
2018-03-03T11:16:53.592Z,67.16
2018-03-03T11:19:24.393Z,67.07
2018-03-03T11:21:55.226Z,67.33
2018-03-03T11:24:26.069Z,69.93
2018-03-03T11:26:56.925Z,67.17
2018-03-03T11:29:27.772Z,67.62
2018-03-03T11:31:58.606Z,66.44
2018-03-03T11:34:29.404Z,67.71
2018-03-03T11:37:00.269Z,68.80
2018-03-03T11:39:31.097Z,67.26
2018-03-03T11:42:01.988Z,69.39
2018-03-03T11:44:32.831Z,66.18
2018-03-03T11:47:03.658Z,67.44
2018-03-03T11:49:34.471Z,66.73
2018-03-03T11:52:05.316Z,66.00
2018-03-03T11:54:36.120Z,67.42
2018-03-03T11:57:06.970Z,66.79
2018-03-03T11:59:37.809Z,67.54
2018-03-03T12:02:08.652Z,63.75
2018-03-03T12:04:39.462Z,64.95
2018-03-03T12:07:10.338Z,61.67
2018-03-03T12:09:41.185Z,61.20
2018-03-03T12:12:12.083Z,62.18
2018-03-03T12:14:42.973Z,59.89
2018-03-03T12:17:13.857Z,57.13
2018-03-03T12:19:44.747Z,56.36
2018-03-03T12:22:15.675Z,56.09
2018-03-03T12:24:46.487Z,53.44
2018-03-03T12:27:17.357Z,55.32
2018-03-03T12:29:48.219Z,53.63
2018-03-03T12:32:19.314Z,57.20
2018-03-03T12:34:51.120Z,58.49
2018-03-03T12:37:22.231Z,55.54
2018-03-03T12:39:53.043Z,55.24
2018-03-03T12:42:24.036Z,55.65
2018-03-03T12:44:54.877Z,57.93
2018-03-03T12:47:25.804Z,59.71
2018-03-03T12:49:56.766Z,60.59
2018-03-03T12:52:27.613Z,61.22
2018-03-03T12:54:58.509Z,59.46
2018-03-03T12:57:29.367Z,59.95
2018-03-03T13:00:00.277Z,60.03
2018-03-03T13:02:31.171Z,62.69
2018-03-03T13:05:02.018Z,64.97
2018-03-03T13:07:32.863Z,64.95
2018-03-03T13:10:03.729Z,64.68
2018-03-03T13:12:34.554Z,64.95
2018-03-03T13:15:05.377Z,64.04
2018-03-03T13:17:36.270Z,62.53
2018-03-03T13:20:07.077Z,60.43
2018-03-03T13:22:37.898Z,63.81
2018-03-03T13:25:08.708Z,63.35
2018-03-03T13:27:39.545Z,62.23
2018-03-03T13:30:10.357Z,61.89
2018-03-03T13:32:41.189Z,60.10
2018-03-03T13:35:11.990Z,60.85
2018-03-03T13:37:42.861Z,58.07
2018-03-03T13:40:13.718Z,57.66
2018-03-03T13:42:44.579Z,56.44
2018-03-03T13:45:15.413Z,57.63
2018-03-03T13:47:46.228Z,56.74
2018-03-03T13:50:17.086Z,53.83
2018-03-03T13:52:48.025Z,52.82
2018-03-03T13:55:18.886Z,51.45
2018-03-03T13:57:49.737Z,48.52
2018-03-03T14:00:20.632Z,47.30
2018-03-03T14:02:51.492Z,47.48
2018-03-03T14:05:22.411Z,42.28
2018-03-03T14:07:53.274Z,39.98
2018-03-03T14:10:24.156Z,40.74
2018-03-03T14:12:55.126Z,40.83
2018-03-03T14:15:25.974Z,45.77
2018-03-03T14:17:56.889Z,47.01
2018-03-03T14:20:27.757Z,48.28
2018-03-03T14:22:58.582Z,48.66
2018-03-03T14:25:29.430Z,49.18
2018-03-03T14:28:00.247Z,49.88
2018-03-03T14:30:31.125Z,50.01
2018-03-03T14:33:01.935Z,50.27
2018-03-03T14:35:32.856Z,48.85
2018-03-03T14:38:03.763Z,49.73
2018-03-03T14:40:34.589Z,48.71
2018-03-03T14:43:05.491Z,48.47
2018-03-03T14:45:36.444Z,46.94
2018-03-03T14:48:07.243Z,50.22
2018-03-03T14:50:38.087Z,51.00
2018-03-03T14:53:08.923Z,50.26
2018-03-03T14:55:39.750Z,49.32
2018-03-03T14:58:10.589Z,52.82
2018-03-03T15:00:41.425Z,50.74
2018-03-03T15:03:12.275Z,53.76
2018-03-03T15:05:43.094Z,54.92
2018-03-03T15:08:13.901Z,53.46
2018-03-03T15:10:44.723Z,53.71
2018-03-03T15:13:15.512Z,54.79
2018-03-03T15:15:46.361Z,55.08
2018-03-03T15:18:17.210Z,55.64
2018-03-03T15:20:48.117Z,56.34
2018-03-03T15:23:18.966Z,55.99
2018-03-03T15:25:49.827Z,57.11
2018-03-03T15:28:20.634Z,57.40
2018-03-03T15:30:51.474Z,57.87
2018-03-03T15:33:22.270Z,57.55
2018-03-03T15:35:53.098Z,57.37
2018-03-03T15:38:23.885Z,57.33
2018-03-03T15:40:54.719Z,57.83
2018-03-03T15:43:25.527Z,57.92
2018-03-03T15:45:56.465Z,58.19
2018-03-03T15:48:27.345Z,58.44
2018-03-03T15:50:58.185Z,58.06
2018-03-03T15:53:28.981Z,59.08
2018-03-03T15:55:59.800Z,58.69
2018-03-03T15:58:30.615Z,59.01
2018-03-03T16:01:01.447Z,59.17
2018-03-03T16:03:32.252Z,59.50
2018-03-03T16:06:03.100Z,59.71
2018-03-03T16:08:33.916Z,59.74
2018-03-03T16:11:04.752Z,60.00
2018-03-03T16:13:35.530Z,60.48
2018-03-03T16:16:06.403Z,60.92
2018-03-03T16:18:37.234Z,61.01
2018-03-03T16:21:09.149Z,62.40
2018-03-03T16:23:40.010Z,62.49
2018-03-03T16:26:10.887Z,61.65
2018-03-03T16:28:41.776Z,61.65
2018-03-03T16:31:13.694Z,62.22
2018-03-03T16:33:44.513Z,63.17
2018-03-03T16:36:15.356Z,64.85
2018-03-03T16:38:46.179Z,64.79
2018-03-03T16:41:17.034Z,65.06
2018-03-03T16:43:47.871Z,65.56
2018-03-03T16:46:18.706Z,64.00
2018-03-03T16:48:49.549Z,64.37
2018-03-03T16:51:20.375Z,65.19
2018-03-03T16:53:51.174Z,66.79
2018-03-03T16:56:22.043Z,66.67
2018-03-03T16:58:52.856Z,66.11
2018-03-03T17:01:23.717Z,65.44
2018-03-03T17:03:54.556Z,64.64
2018-03-03T17:06:25.450Z,64.90
2018-03-03T17:08:56.284Z,65.96
2018-03-03T17:11:27.113Z,66.79
2018-03-03T17:13:59.026Z,67.56
2018-03-03T17:16:29.862Z,67.48
2018-03-03T17:19:00.799Z,67.40
2018-03-03T17:21:31.638Z,67.19
2018-03-03T17:24:02.491Z,67.23
2018-03-03T17:26:33.326Z,67.20
2018-03-03T17:29:04.118Z,66.69
2018-03-03T17:31:34.991Z,66.97
2018-03-03T17:34:05.774Z,68.51
2018-03-03T17:36:36.565Z,68.74
2018-03-03T17:39:07.491Z,68.73
2018-03-03T17:41:38.327Z,68.39
2018-03-03T17:44:09.141Z,69.33
2018-03-03T17:46:39.998Z,69.08
2018-03-03T17:49:10.797Z,69.12
2018-03-03T17:51:42.111Z,69.00
2018-03-03T17:54:12.967Z,68.93
2018-03-03T17:56:43.784Z,68.98
2018-03-03T17:59:16.647Z,69.54
2018-03-03T18:01:47.471Z,70.80
2018-03-03T18:04:18.295Z,71.60
2018-03-03T18:06:49.101Z,72.27
2018-03-03T18:09:19.892Z,72.66
2018-03-03T18:11:59.711Z,72.78
2018-03-03T18:14:30.572Z,73.36
2018-03-03T18:17:01.406Z,73.80
2018-03-03T18:19:33.123Z,71.93
2018-03-03T18:22:03.976Z,72.03
2018-03-03T18:24:34.894Z,71.99
2018-03-03T18:27:05.800Z,72.02
2018-03-03T18:29:36.721Z,72.06
2018-03-03T18:32:07.558Z,72.81
2018-03-03T18:34:38.483Z,72.45
2018-03-03T18:37:09.289Z,71.05
2018-03-03T18:39:40.138Z,71.38
2018-03-03T18:42:10.964Z,71.52
2018-03-03T18:44:42.257Z,72.72
2018-03-03T18:47:13.163Z,73.03
2018-03-03T18:49:44.021Z,73.42
2018-03-03T18:52:14.902Z,73.84
2018-03-03T18:54:45.797Z,73.33
2018-03-03T18:57:16.728Z,73.94
2018-03-03T18:59:47.634Z,73.53
2018-03-03T19:02:18.642Z,73.50
2018-03-03T19:04:49.479Z,74.00
2018-03-03T19:07:20.326Z,74.75
2018-03-03T19:09:51.202Z,74.44
2018-03-03T19:12:22.038Z,75.08
2018-03-03T19:14:52.899Z,75.51
2018-03-03T19:17:23.735Z,75.62
2018-03-03T19:19:54.615Z,75.58
2018-03-03T19:22:25.502Z,74.84
2018-03-03T19:24:56.356Z,74.94
2018-03-03T19:27:27.267Z,75.71
2018-03-03T19:29:58.096Z,75.89
2018-03-03T19:32:28.909Z,75.37
2018-03-03T19:34:59.751Z,75.86
2018-03-03T19:37:30.626Z,75.97
2018-03-03T19:40:01.475Z,77.02
2018-03-03T19:42:32.375Z,77.75
2018-03-03T19:45:03.323Z,78.33
2018-03-03T19:47:34.262Z,78.97
2018-03-03T19:50:05.108Z,78.48
2018-03-03T19:52:35.954Z,78.97
2018-03-03T19:55:06.802Z,79.84
2018-03-03T19:57:37.620Z,79.93
2018-03-03T20:00:08.449Z,79.64
2018-03-03T20:02:39.300Z,80.28
2018-03-03T20:05:10.139Z,81.05
2018-03-03T20:07:41.047Z,80.56
2018-03-03T20:10:11.914Z,79.92
2018-03-03T20:12:42.820Z,80.54
2018-03-03T20:15:13.689Z,82.16
2018-03-03T20:17:44.604Z,82.65
2018-03-03T20:20:15.470Z,83.35
2018-03-03T20:22:46.380Z,83.23
2018-03-03T20:25:17.177Z,83.18
2018-03-03T20:27:48.059Z,83.43
2018-03-03T20:30:18.942Z,83.59
2018-03-03T20:32:49.784Z,83.86
2018-03-03T20:35:20.609Z,83.76
2018-03-03T20:37:51.487Z,84.23
2018-03-03T20:40:22.395Z,84.30
2018-03-03T20:42:53.265Z,84.06
2018-03-03T20:45:24.142Z,84.67
2018-03-03T20:47:58.488Z,84.57
2018-03-03T20:50:29.412Z,84.26
2018-03-03T20:53:00.376Z,85.19
2018-03-03T20:55:31.909Z,84.97
2018-03-03T20:58:02.805Z,84.57
2018-03-03T21:00:34.542Z,84.46
2018-03-03T21:03:05.443Z,84.48
2018-03-03T21:05:36.333Z,84.47
2018-03-03T21:08:07.215Z,84.74
2018-03-03T21:10:38.126Z,84.96
2018-03-03T21:13:09.013Z,84.96
2018-03-03T21:15:39.806Z,85.16
2018-03-03T21:18:10.713Z,85.62
2018-03-03T21:20:41.611Z,85.48
2018-03-03T21:23:12.509Z,85.62
2018-03-03T21:25:43.374Z,85.93
2018-03-03T21:28:14.525Z,85.69
2018-03-03T21:30:45.442Z,86.14
2018-03-03T21:33:16.275Z,86.48
2018-03-03T21:35:47.138Z,86.53
2018-03-03T21:38:18.042Z,86.02
2018-03-03T21:40:48.909Z,86.13
2018-03-03T21:43:19.772Z,86.18
2018-03-03T21:45:50.653Z,85.85
2018-03-03T21:48:21.499Z,85.39
2018-03-03T21:50:52.391Z,85.35
2018-03-03T21:53:23.379Z,84.47
2018-03-03T21:55:54.308Z,84.42
2018-03-03T21:58:26.286Z,84.85
2018-03-03T22:00:58.999Z,84.71
2018-03-03T22:03:29.876Z,84.27
2018-03-03T22:06:00.968Z,83.83
2018-03-03T22:08:31.771Z,83.69
2018-03-03T22:11:02.568Z,82.26
2018-03-03T22:13:33.374Z,81.85
2018-03-03T22:16:04.196Z,82.02
2018-03-03T22:18:35.326Z,81.94
2018-03-03T22:21:06.161Z,81.72
2018-03-03T22:23:37.026Z,82.19
2018-03-03T22:26:07.894Z,81.74
2018-03-03T22:28:38.741Z,81.57
2018-03-03T22:31:09.706Z,81.76
2018-03-03T22:33:40.625Z,81.96
2018-03-03T22:36:11.565Z,82.53
2018-03-03T22:38:42.428Z,82.59
2018-03-03T22:41:13.370Z,82.46
2018-03-03T22:43:45.429Z,82.65
2018-03-03T22:46:16.284Z,83.01
2018-03-03T22:48:47.174Z,83.55
2018-03-03T22:51:18.108Z,83.98
2018-03-03T22:53:49.323Z,84.39
2018-03-03T22:56:20.126Z,84.42
2018-03-03T22:58:51.061Z,84.65
2018-03-03T23:01:21.901Z,85.09
2018-03-03T23:03:54.333Z,85.57
2018-03-03T23:06:25.302Z,85.78
2018-03-03T23:08:56.224Z,85.89
2018-03-03T23:11:27.362Z,86.16
2018-03-03T23:13:58.261Z,86.28
2018-03-03T23:16:29.167Z,86.37
2018-03-03T23:19:00.071Z,86.48
2018-03-03T23:21:31.876Z,86.67
2018-03-03T23:24:02.823Z,86.39
2018-03-03T23:26:35.305Z,86.26
2018-03-03T23:29:06.253Z,86.01
2018-03-03T23:31:37.363Z,85.70
2018-03-03T23:34:09.130Z,85.70
2018-03-03T23:36:40.838Z,85.37
2018-03-03T23:39:11.768Z,85.38
2018-03-03T23:41:44.183Z,84.77
2018-03-03T23:44:16.110Z,84.88
2018-03-03T23:46:47.016Z,84.54
2018-03-03T23:49:17.901Z,84.26
2018-03-03T23:51:52.451Z,83.95
2018-03-03T23:54:24.442Z,83.91
2018-03-03T23:56:55.570Z,83.76
2018-03-03T23:59:27.553Z,83.82
